Time;durP1;ratioP1;P1;durP2;ratioP2;P2;SDS_P1;SDS_P2;PMS_P1;PMS_P2;Temp;Humidity;BMP_temperature;BMP_pressure;BME280_temperature;BME280_humidity;BME280_pressure;Samples;Min_cycle;Max_cycle;Signal;HPM_P1;HPM_P2
2023/07/29 00:00:43;;;;;;;44.40;41.78;;;15.50;99.90;;;;;;5107515;28;20031;-73
2023/07/29 00:03:09;;;;;;;40.80;38.50;;;15.50;99.90;;;;;;5105064;27;20032;-73
2023/07/29 00:05:39;;;;;;;39.65;37.20;;;15.40;99.90;;;;;;5106334;28;20025;-73
2023/07/29 00:08:05;;;;;;;42.05;39.70;;;15.30;99.90;;;;;;5105314;28;20753;-74
2023/07/29 00:10:32;;;;;;;40.40;38.17;;;15.30;99.90;;;;;;5092085;28;20062;-73
2023/07/29 00:12:58;;;;;;;39.70;37.47;;;15.40;99.90;;;;;;5108763;28;20031;-73
2023/07/29 00:15:24;;;;;;;38.65;36.70;;;15.30;99.90;;;;;;5102784;27;20042;-73
2023/07/29 00:17:49;;;;;;;40.83;38.40;;;15.30;99.90;;;;;;5107870;28;20478;-73
2023/07/29 00:20:15;;;;;;;39.17;37.00;;;15.30;99.90;;;;;;5074187;28;20482;-73
2023/07/29 00:22:41;;;;;;;38.33;36.00;;;15.30;99.90;;;;;;5107720;28;20670;-73
2023/07/29 00:25:07;;;;;;;39.80;37.10;;;15.30;99.90;;;;;;5104047;28;20038;-73
2023/07/29 00:27:33;;;;;;;38.50;36.33;;;15.20;99.90;;;;;;5091879;28;20713;-73
2023/07/29 00:29:58;;;;;;;39.17;36.97;;;15.20;99.90;;;;;;5108790;28;20040;-73
2023/07/29 00:32:24;;;;;;;38.75;36.58;;;15.20;99.90;;;;;;5074632;28;20019;-73
2023/07/29 00:34:50;;;;;;;38.50;36.17;;;15.20;99.90;;;;;;5105316;28;20032;-73
2023/07/29 00:37:15;;;;;;;39.97;37.80;;;15.20;99.90;;;;;;5075295;28;20020;-73
2023/07/29 00:39:41;;;;;;;38.50;36.47;;;15.30;99.90;;;;;;5108088;28;20489;-73
2023/07/29 00:42:07;;;;;;;45.70;43.30;;;15.40;99.90;;;;;;5107462;28;20033;-73
2023/07/29 00:44:32;;;;;;;41.65;39.42;;;15.40;99.90;;;;;;5103338;28;20081;-73
2023/07/29 00:47:02;;;;;;;46.75;44.22;;;15.40;99.90;;;;;;5109752;28;20070;-74
2023/07/29 00:49:28;;;;;;;45.80;43.13;;;15.40;99.90;;;;;;5106184;28;20031;-73
2023/07/29 00:51:54;;;;;;;46.45;43.75;;;15.40;99.90;;;;;;5104715;28;20015;-73
2023/07/29 00:54:19;;;;;;;41.47;39.28;;;15.30;99.90;;;;;;5108696;28;20028;-72
2023/07/29 00:56:45;;;;;;;40.67;38.45;;;15.30;99.90;;;;;;5125963;28;20040;-72
2023/07/29 00:59:11;;;;;;;51.80;49.13;;;15.30;99.90;;;;;;5125003;28;20036;-72
2023/07/29 01:01:37;;;;;;;52.08;49.60;;;15.30;99.90;;;;;;5125935;28;20036;-72
2023/07/29 01:04:02;;;;;;;45.40;42.97;;;15.20;99.90;;;;;;5109673;28;20096;-72
2023/07/29 01:07:14;;;;;;;39.38;37.17;;;15.30;99.90;;;;;;5124600;28;20028;-72
2023/07/29 01:10:00;;;;;;;34.80;32.65;;;15.40;99.90;;;;;;5029103;28;20030;-72
2023/07/29 01:12:51;;;;;;;32.42;30.35;;;15.50;99.90;;;;;;5121167;28;20031;-72
2023/07/29 01:15:30;;;;;;;33.90;31.92;;;15.40;99.90;;;;;;5107396;28;20042;-72
2023/07/29 01:18:04;;;;;;;42.47;40.28;;;15.40;99.90;;;;;;5109354;28;20092;-73
2023/07/29 01:20:33;;;;;;;40.50;38.20;;;15.40;99.90;;;;;;5103004;28;20101;-73
2023/07/29 01:22:59;;;;;;;37.30;35.07;;;15.40;99.90;;;;;;5104417;28;20059;-72
2023/07/29 01:25:25;;;;;;;45.42;43.13;;;15.40;99.90;;;;;;5105167;28;20052;-74
2023/07/29 01:27:52;;;;;;;35.90;34.10;;;15.30;99.90;;;;;;5102802;27;20035;-72
2023/07/29 01:30:18;;;;;;;34.97;32.97;;;15.30;99.90;;;;;;5102803;27;20019;-73
2023/07/29 01:32:44;;;;;;;32.58;30.67;;;15.30;99.90;;;;;;5109615;28;20140;-73
2023/07/29 01:35:28;;;;;;;37.22;35.15;;;15.40;99.90;;;;;;5105112;28;20484;-73
2023/07/29 01:38:00;;;;;;;33.22;31.20;;;15.40;99.90;;;;;;5103825;28;20024;-73
2023/07/29 01:40:29;;;;;;;33.25;31.27;;;15.40;99.90;;;;;;5103614;28;20047;-73
2023/07/29 01:42:55;;;;;;;36.55;34.65;;;15.40;99.90;;;;;;5091158;28;20032;-73
2023/07/29 01:45:27;;;;;;;31.73;29.77;;;15.50;99.90;;;;;;5107966;28;20106;-73
2023/07/29 01:47:53;;;;;;;31.58;29.88;;;15.50;99.90;;;;;;5090231;28;20031;-73
2023/07/29 01:50:19;;;;;;;34.30;32.33;;;15.60;99.90;;;;;;5107661;28;20022;-73
2023/07/29 01:52:44;;;;;;;31.67;30.08;;;15.60;99.90;;;;;;5098606;28;20024;-73
2023/07/29 01:55:10;;;;;;;33.20;31.50;;;15.60;99.90;;;;;;5105182;28;20039;-74
2023/07/29 01:57:36;;;;;;;42.80;40.28;;;15.60;99.90;;;;;;5107685;27;20035;-74
2023/07/29 02:00:03;;;;;;;39.50;37.13;;;15.60;99.90;;;;;;5107418;27;20030;-73
2023/07/29 02:02:29;;;;;;;38.22;36.30;;;15.60;99.90;;;;;;5099710;28;20075;-74
2023/07/29 02:04:55;;;;;;;35.25;33.22;;;15.50;99.90;;;;;;5106251;28;20442;-73
2023/07/29 02:07:21;;;;;;;35.80;34.00;;;15.50;99.90;;;;;;5105569;28;20039;-73
2023/07/29 02:09:47;;;;;;;37.40;35.35;;;15.40;99.90;;;;;;5086311;28;20087;-73
2023/07/29 02:12:12;;;;;;;34.92;32.95;;;15.40;99.90;;;;;;5086627;28;20510;-74
2023/07/29 02:14:38;;;;;;;32.45;30.50;;;15.30;99.90;;;;;;5104261;28;20027;-73
2023/07/29 02:17:04;;;;;;;39.05;36.88;;;15.20;99.90;;;;;;5104629;28;20525;-73
2023/07/29 02:19:29;;;;;;;42.85;40.55;;;15.20;99.90;;;;;;5101597;28;20027;-73
2023/07/29 02:21:55;;;;;;;43.63;41.42;;;15.10;99.90;;;;;;5105621;28;20080;-74
2023/07/29 02:24:21;;;;;;;34.80;32.75;;;15.00;99.90;;;;;;5107452;28;20043;-73
2023/07/29 02:26:46;;;;;;;53.45;50.58;;;15.00;99.90;;;;;;5087366;28;20478;-73
2023/07/29 02:29:12;;;;;;;44.75;42.38;;;15.00;99.90;;;;;;5086104;28;20055;-73
2023/07/29 02:31:38;;;;;;;35.53;33.60;;;15.00;99.90;;;;;;5107485;28;20059;-73
2023/07/29 02:34:04;;;;;;;38.45;36.38;;;15.00;99.90;;;;;;5104259;28;20037;-73
2023/07/29 02:36:29;;;;;;;34.17;32.35;;;15.10;99.90;;;;;;5105364;28;20043;-73
2023/07/29 02:38:55;;;;;;;36.67;34.55;;;15.00;99.90;;;;;;5087725;28;20394;-73
2023/07/29 02:41:21;;;;;;;41.38;39.13;;;14.90;99.90;;;;;;5107298;28;20662;-73
2023/07/29 02:43:50;;;;;;;33.88;31.98;;;14.90;99.90;;;;;;5101852;28;20036;-73
2023/07/29 02:46:16;;;;;;;35.58;33.33;;;14.90;99.90;;;;;;5103792;28;20036;-73
2023/07/29 02:48:42;;;;;;;35.20;32.42;;;14.90;99.90;;;;;;5103181;28;20455;-73
2023/07/29 02:51:08;;;;;;;31.58;29.83;;;14.90;99.90;;;;;;5102902;28;20032;-73
2023/07/29 02:53:36;;;;;;;31.35;29.42;;;14.80;99.90;;;;;;5100987;28;20031;-73
2023/07/29 02:56:02;;;;;;;31.77;29.63;;;14.80;99.90;;;;;;5071260;28;20499;-73
2023/07/29 02:58:29;;;;;;;29.52;27.80;;;14.80;99.90;;;;;;5104416;28;20067;-73
2023/07/29 03:01:01;;;;;;;31.67;29.55;;;14.70;99.90;;;;;;5071089;28;20105;-73
2023/07/29 03:03:27;;;;;;;28.55;26.88;;;14.70;99.90;;;;;;5102564;28;20405;-73
2023/07/29 03:06:04;;;;;;;28.88;27.27;;;14.70;99.90;;;;;;5088336;28;20031;-73
2023/07/29 03:08:30;;;;;;;29.05;27.25;;;14.70;99.90;;;;;;5105056;28;20028;-73
2023/07/29 03:11:04;;;;;;;30.40;28.50;;;14.70;99.90;;;;;;5105173;28;20050;-73
2023/07/29 03:13:30;;;;;;;29.77;27.77;;;14.80;99.90;;;;;;5105643;28;20047;-73
2023/07/29 03:16:08;;;;;;;30.50;28.75;;;14.90;99.90;;;;;;5103253;28;20067;-73
2023/07/29 03:18:34;;;;;;;29.00;27.30;;;15.00;99.90;;;;;;5105981;28;20046;-73
2023/07/29 03:21:00;;;;;;;28.58;26.70;;;15.00;99.90;;;;;;5104162;28;20024;-73
2023/07/29 03:23:27;;;;;;;29.58;27.83;;;15.10;99.90;;;;;;5087288;28;20581;-73
2023/07/29 03:25:58;;;;;;;29.17;27.50;;;15.10;99.90;;;;;;5087377;28;20060;-73
2023/07/29 03:28:27;;;;;;;29.52;27.35;;;15.10;99.90;;;;;;5106866;28;20020;-73
2023/07/29 03:30:53;;;;;;;29.20;26.95;;;15.20;99.90;;;;;;5102003;28;20073;-73
2023/07/29 03:33:19;;;;;;;29.48;27.65;;;15.20;99.90;;;;;;5106175;28;20116;-73
2023/07/29 03:35:44;;;;;;;27.88;25.95;;;15.10;99.90;;;;;;5103848;28;20041;-73
2023/07/29 03:38:11;;;;;;;26.50;24.73;;;15.10;99.90;;;;;;5097786;28;20027;-73
2023/07/29 03:40:38;;;;;;;29.17;26.55;;;15.10;99.90;;;;;;5108176;28;20035;-74
2023/07/29 03:43:04;;;;;;;26.92;24.98;;;15.00;99.90;;;;;;5109976;27;20032;-73
2023/07/29 03:45:30;;;;;;;30.13;28.20;;;15.10;99.90;;;;;;5106697;28;20081;-73
2023/07/29 03:47:56;;;;;;;27.80;25.95;;;15.00;99.90;;;;;;5110725;28;20432;-73
2023/07/29 03:50:22;;;;;;;28.20;26.60;;;14.90;99.90;;;;;;5108794;28;20040;-73
2023/07/29 03:52:47;;;;;;;29.85;27.98;;;15.00;99.90;;;;;;5107517;28;20157;-73
2023/07/29 03:55:13;;;;;;;28.95;27.10;;;15.10;99.90;;;;;;5105315;28;20059;-74
2023/07/29 03:57:39;;;;;;;29.08;27.38;;;15.00;99.90;;;;;;5106109;28;20044;-74
2023/07/29 04:00:05;;;;;;;30.08;28.27;;;15.00;99.90;;;;;;5072213;28;20031;-73
2023/07/29 04:02:31;;;;;;;30.52;28.42;;;15.00;99.90;;;;;;5107541;28;20151;-73
2023/07/29 04:04:57;;;;;;;32.60;30.75;;;15.10;99.90;;;;;;5105159;28;20541;-73
2023/07/29 04:07:23;;;;;;;35.97;33.72;;;15.10;99.90;;;;;;5101802;28;20019;-73
2023/07/29 04:09:49;;;;;;;35.05;33.00;;;15.20;99.90;;;;;;5106830;28;20179;-73
2023/07/29 04:12:15;;;;;;;33.88;31.67;;;15.30;99.90;;;;;;5108931;27;20429;-73
2023/07/29 04:14:41;;;;;;;35.35;31.88;;;15.30;99.90;;;;;;5092581;28;20047;-73
2023/07/29 04:17:07;;;;;;;36.78;34.85;;;15.30;99.90;;;;;;5110488;28;20027;-73
2023/07/29 04:19:33;;;;;;;32.03;29.88;;;15.40;99.90;;;;;;5110341;28;20027;-73
2023/07/29 04:21:59;;;;;;;32.92;31.05;;;15.30;99.90;;;;;;5092422;28;20474;-73
2023/07/29 04:24:25;;;;;;;29.65;27.92;;;15.40;99.90;;;;;;5110124;28;20035;-74
2023/07/29 04:26:50;;;;;;;32.00;30.10;;;15.40;99.90;;;;;;5110225;27;20252;-73
2023/07/29 04:29:16;;;;;;;31.33;29.42;;;15.40;99.90;;;;;;5090596;28;20036;-73
2023/07/29 04:31:42;;;;;;;41.33;38.35;;;15.40;99.90;;;;;;5106403;28;20173;-73
2023/07/29 04:34:08;;;;;;;38.97;35.78;;;15.40;99.90;;;;;;5106895;28;21069;-73
2023/07/29 04:36:34;;;;;;;31.95;29.92;;;15.40;99.90;;;;;;5108967;28;20035;-73
2023/07/29 04:39:00;;;;;;;33.72;31.55;;;15.40;99.90;;;;;;5107032;28;20047;-73
2023/07/29 04:41:26;;;;;;;29.60;27.77;;;15.50;99.90;;;;;;5102290;28;20738;-73
2023/07/29 04:43:52;;;;;;;31.38;29.48;;;15.50;99.90;;;;;;5086546;28;20024;-74
2023/07/29 04:46:18;;;;;;;30.05;28.27;;;15.60;99.90;;;;;;5108823;28;20039;-73
2023/07/29 04:48:43;;;;;;;32.00;30.17;;;15.60;99.90;;;;;;5108076;28;20024;-74
2023/07/29 04:51:09;;;;;;;30.25;28.52;;;15.60;99.90;;;;;;5108363;27;20039;-73
2023/07/29 04:53:36;;;;;;;29.60;27.98;;;15.70;99.90;;;;;;5109844;28;20039;-73
2023/07/29 04:56:02;;;;;;;30.15;28.50;;;15.70;99.90;;;;;;5088724;28;20138;-73
2023/07/29 04:58:29;;;;;;;31.75;30.00;;;15.60;99.90;;;;;;5104826;28;20039;-73
2023/07/29 05:00:56;;;;;;;32.35;30.55;;;15.70;99.90;;;;;;5111324;27;20401;-73
2023/07/29 05:03:22;;;;;;;34.50;32.78;;;15.60;99.90;;;;;;5109566;28;20036;-73
2023/07/29 05:05:48;;;;;;;27.13;25.50;;;15.70;99.90;;;;;;5109828;28;20039;-73
2023/07/29 05:08:14;;;;;;;28.25;26.65;;;15.70;99.90;;;;;;5107014;28;20602;-73
2023/07/29 05:10:39;;;;;;;34.13;32.30;;;15.70;99.90;;;;;;5105351;28;20108;-73
2023/07/29 05:13:05;;;;;;;30.55;28.70;;;15.70;99.90;;;;;;5109019;28;20122;-74
2023/07/29 05:15:31;;;;;;;33.33;31.55;;;15.70;99.90;;;;;;5107009;28;20046;-73
2023/07/29 05:17:56;;;;;;;29.90;28.02;;;15.70;99.90;;;;;;5107877;28;20090;-73
2023/07/29 05:20:22;;;;;;;31.15;29.15;;;15.80;99.90;;;;;;5106283;28;20028;-74
2023/07/29 05:22:47;;;;;;;34.30;32.35;;;15.80;99.90;;;;;;5106185;28;20031;-73
2023/07/29 05:25:13;;;;;;;34.70;32.85;;;15.80;99.90;;;;;;5107363;27;20060;-73
2023/07/29 05:27:39;;;;;;;34.28;32.45;;;15.90;99.90;;;;;;5100986;28;20035;-73
2023/07/29 05:30:06;;;;;;;43.97;41.60;;;16.10;99.90;;;;;;5109054;28;20481;-73
2023/07/29 05:32:32;;;;;;;35.08;33.33;;;16.10;99.90;;;;;;5086026;28;20123;-73
2023/07/29 05:34:57;;;;;;;30.00;28.40;;;16.20;99.90;;;;;;5108611;28;20574;-75
2023/07/29 05:37:23;;;;;;;28.67;27.20;;;16.20;99.90;;;;;;5103927;28;20036;-75
2023/07/29 05:39:48;;;;;;;30.65;29.05;;;16.20;99.90;;;;;;5108806;28;20123;-75
2023/07/29 05:42:14;;;;;;;32.40;30.58;;;16.20;99.90;;;;;;5108424;28;20084;-79
2023/07/29 05:44:44;;;;;;;28.13;26.52;;;16.20;99.90;;;;;;5107689;28;20394;-79
2023/07/29 05:47:13;;;;;;;29.65;28.10;;;16.30;99.90;;;;;;5087171;28;20063;-82
2023/07/29 05:49:39;;;;;;;31.15;29.45;;;16.40;99.90;;;;;;5106217;28;20233;-80
2023/07/29 05:52:05;;;;;;;26.90;25.52;;;16.30;99.90;;;;;;5072818;28;20122;-84
2023/07/29 05:54:30;;;;;;;29.85;28.45;;;16.30;99.90;;;;;;5089031;28;20039;-83
2023/07/29 05:56:56;;;;;;;35.70;33.72;;;16.40;99.90;;;;;;5105887;28;20515;-82
2023/07/29 05:59:21;;;;;;;29.42;27.83;;;16.30;99.90;;;;;;5105582;28;20042;-80
2023/07/29 06:01:47;;;;;;;33.20;31.10;;;16.50;99.90;;;;;;5105884;28;20035;-82
2023/07/29 06:04:13;;;;;;;31.23;29.63;;;16.60;99.90;;;;;;5102157;28;20089;-80
2023/07/29 06:06:39;;;;;;;43.60;41.33;;;16.80;99.90;;;;;;5108313;28;20035;-83
2023/07/29 06:09:04;;;;;;;42.13;40.10;;;16.80;99.90;;;;;;5107765;27;20114;-84
2023/07/29 06:11:30;;;;;;;36.30;34.47;;;16.90;99.70;;;;;;5108047;27;20490;-82
2023/07/29 06:13:56;;;;;;;42.08;40.15;;;17.00;99.40;;;;;;5107269;28;20410;-81
2023/07/29 06:16:21;;;;;;;47.75;45.42;;;17.00;98.20;;;;;;5106473;28;20032;-84
2023/07/29 06:18:47;;;;;;;34.95;33.35;;;17.10;97.60;;;;;;5088850;28;20036;-85
2023/07/29 06:21:16;;;;;;;41.65;39.75;;;17.30;98.50;;;;;;5106337;28;20032;-81
2023/07/29 06:23:47;;;;;;;39.50;37.33;;;17.60;97.50;;;;;;5090883;28;20031;-84
2023/07/29 06:26:13;;;;;;;;;;;17.60;95.80;;;;;;5105613;28;20036;-82
2023/07/29 06:28:38;;;;;;;31.92;30.20;;;17.60;95.60;;;;;;5090987;28;19919;-81
2023/07/29 06:31:04;;;;;;;38.03;36.25;;;17.60;94.90;;;;;;5104655;28;20047;-74
2023/07/29 06:33:30;;;;;;;47.28;45.05;;;17.40;95.40;;;;;;5105613;28;20039;-73
2023/07/29 06:35:56;;;;;;;34.45;32.63;;;17.40;95.00;;;;;;5105170;28;21179;-74
2023/07/29 06:38:21;;;;;;;42.20;40.13;;;17.60;96.00;;;;;;5086900;28;20398;-74
2023/07/29 06:40:48;;;;;;;44.55;42.40;;;17.70;95.50;;;;;;5103919;28;20047;-74
2023/07/29 06:43:14;;;;;;;38.72;36.72;;;17.90;95.20;;;;;;5104837;28;20119;-75
2023/07/29 06:45:40;;;;;;;39.45;37.58;;;18.00;94.90;;;;;;5105423;28;20107;-77
2023/07/29 06:48:05;;;;;;;42.58;40.58;;;18.30;94.90;;;;;;5101834;28;20111;-78
2023/07/29 06:50:31;;;;;;;51.13;48.78;;;18.40;94.00;;;;;;5087956;28;20042;-77
2023/07/29 06:52:57;;;;;;;47.47;45.38;;;18.40;93.60;;;;;;5105723;28;20023;-77
2023/07/29 06:55:22;;;;;;;55.33;52.88;;;18.30;93.50;;;;;;5087044;28;20549;-77
2023/07/29 06:57:48;;;;;;;53.47;50.97;;;18.30;94.20;;;;;;5089806;28;20118;-77
2023/07/29 07:00:14;;;;;;;46.80;44.60;;;18.60;94.10;;;;;;5105512;28;20406;-77
2023/07/29 07:02:39;;;;;;;51.67;49.25;;;18.50;94.10;;;;;;5104350;28;20035;-77
2023/07/29 07:05:05;;;;;;;59.63;56.92;;;18.40;94.00;;;;;;5104945;28;20051;-80
2023/07/29 07:07:32;;;;;;;58.38;55.92;;;18.30;93.30;;;;;;5085818;28;20032;-84
2023/07/29 07:09:59;;;;;;;60.15;57.45;;;18.50;93.80;;;;;;5069029;28;20572;-86
2023/07/29 07:12:25;;;;;;;52.17;49.65;;;18.80;93.10;;;;;;5105845;28;20156;-73
2023/07/29 07:14:50;;;;;;;49.33;47.25;;;19.20;92.70;;;;;;5103262;28;20119;-74
2023/07/29 07:17:16;;;;;;;41.42;39.63;;;19.30;92.00;;;;;;5106916;28;20023;-72
2023/07/29 07:19:42;;;;;;;47.05;44.75;;;19.30;91.30;;;;;;5090564;28;20055;-71
2023/07/29 07:22:07;;;;;;;39.63;37.70;;;19.40;91.90;;;;;;5108720;27;20028;-71
2023/07/29 07:24:33;;;;;;;42.08;40.05;;;19.70;91.10;;;;;;5103793;28;20449;-71
2023/07/29 07:26:59;;;;;;;42.08;40.08;;;19.90;90.90;;;;;;5106311;28;20409;-72
2023/07/29 07:29:24;;;;;;;32.33;30.50;;;20.40;89.80;;;;;;5108434;28;20410;-71
2023/07/29 07:31:52;;;;;;;23.65;22.27;;;20.60;90.10;;;;;;5106934;27;20049;-71
2023/07/29 07:34:18;;;;;;;24.35;22.85;;;20.50;87.50;;;;;;5089795;28;20690;-67
2023/07/29 07:36:45;;;;;;;32.50;30.60;;;20.30;86.90;;;;;;5108896;28;20717;-77
2023/07/29 07:39:11;;;;;;;24.08;22.63;;;20.10;90.10;;;;;;5090516;28;20043;-72
2023/07/29 07:41:36;;;;;;;31.15;29.52;;;20.10;88.80;;;;;;5097286;28;20027;-75
2023/07/29 07:44:02;;;;;;;34.20;32.00;;;20.10;90.20;;;;;;5122034;28;20032;-75
2023/07/29 07:46:30;;;;;;;25.48;24.17;;;20.10;90.60;;;;;;5096257;28;20024;-77
2023/07/29 07:48:55;;;;;;;22.90;21.70;;;20.20;88.70;;;;;;5109632;28;20031;-74
2023/07/29 07:51:21;;;;;;;22.70;21.13;;;20.40;87.00;;;;;;5107742;28;20034;-74
2023/07/29 07:53:47;;;;;;;25.85;24.20;;;20.50;87.10;;;;;;5105496;27;20467;-74
2023/07/29 07:56:12;;;;;;;22.27;20.80;;;20.70;87.90;;;;;;5107747;28;20048;-74
2023/07/29 07:58:38;;;;;;;23.33;21.58;;;20.80;85.10;;;;;;5108704;28;20028;-74
2023/07/29 08:01:08;;;;;;;21.65;20.25;;;20.70;85.10;;;;;;5091897;28;20020;-71
2023/07/29 08:03:35;;;;;;;22.52;21.05;;;20.80;85.30;;;;;;5105163;28;20104;-72
2023/07/29 08:06:01;;;;;;;24.92;23.48;;;21.00;85.80;;;;;;5106236;28;20489;-71
2023/07/29 08:08:27;;;;;;;61.85;56.58;;;21.00;83.20;;;;;;5110311;27;20085;-72
2023/07/29 08:10:54;;;;;;;22.67;21.35;;;20.90;82.70;;;;;;5087205;28;20466;-72
2023/07/29 08:13:21;;;;;;;22.02;20.73;;;20.90;85.40;;;;;;5089960;28;20466;-73
2023/07/29 08:15:51;;;;;;;21.08;19.73;;;21.00;85.10;;;;;;5106758;28;20032;-72
2023/07/29 08:18:17;;;;;;;;;;;21.10;84.70;;;;;;5110907;28;20446;-73
2023/07/29 08:20:57;;;;;;;21.73;20.48;;;21.20;84.90;;;;;;5108634;28;20397;-73
2023/07/29 08:23:27;;;;;;;24.65;23.10;;;21.60;83.90;;;;;;5109227;28;20020;-74
2023/07/29 08:26:01;;;;;;;22.00;20.73;;;21.30;81.40;;;;;;5090804;28;20035;-73
2023/07/29 08:28:28;;;;;;;27.88;26.27;;;21.70;83.20;;;;;;5104932;28;20047;-72
2023/07/29 08:30:54;;;;;;;23.38;22.08;;;21.70;80.70;;;;;;5087928;28;20027;-73
2023/07/29 08:33:20;;;;;;;24.13;22.52;;;22.20;82.40;;;;;;5107011;28;20111;-73
2023/07/29 08:35:45;;;;;;;22.70;21.23;;;22.20;78.60;;;;;;5106320;28;20089;-73
2023/07/29 08:38:11;;;;;;;25.75;22.70;;;22.40;79.10;;;;;;5109404;27;20035;-73
2023/07/29 08:40:41;;;;;;;22.25;21.05;;;22.40;77.50;;;;;;5108958;28;20023;-73
2023/07/29 08:43:08;;;;;;;23.55;22.20;;;22.60;77.90;;;;;;5088280;28;20444;-73
2023/07/29 08:45:36;;;;;;;24.55;23.15;;;22.30;77.80;;;;;;5108065;28;20086;-73
2023/07/29 08:48:06;;;;;;;23.77;22.30;;;22.10;76.90;;;;;;5090551;28;20609;-72
2023/07/29 08:50:32;;;;;;;24.73;23.33;;;22.50;77.00;;;;;;5105201;28;20552;-73
2023/07/29 08:52:59;;;;;;;24.73;23.27;;;23.30;74.90;;;;;;5091550;28;20040;-72
2023/07/29 08:55:25;;;;;;;25.10;23.80;;;23.60;75.80;;;;;;5102969;28;20569;-74
2023/07/29 08:57:51;;;;;;;25.10;23.70;;;23.30;72.00;;;;;;5108862;28;20032;-74
2023/07/29 09:00:17;;;;;;;24.70;23.35;;;23.90;75.00;;;;;;5108232;28;20046;-74
2023/07/29 09:02:42;;;;;;;23.05;21.75;;;24.00;73.20;;;;;;5107174;28;20035;-74
2023/07/29 09:05:08;;;;;;;20.90;19.63;;;23.60;70.70;;;;;;5091150;28;20031;-73
2023/07/29 09:07:38;;;;;;;25.77;24.23;;;23.70;71.90;;;;;;5109040;27;20023;-79
2023/07/29 09:10:05;;;;;;;21.85;20.70;;;24.40;69.20;;;;;;5106022;27;20028;-74
2023/07/29 09:12:30;;;;;;;22.58;21.30;;;24.30;69.70;;;;;;5102994;28;20043;-72
2023/07/29 09:14:56;;;;;;;22.33;21.00;;;24.00;72.60;;;;;;5106559;28;20055;-72
2023/07/29 09:17:22;;;;;;;26.42;25.02;;;23.30;71.30;;;;;;5107393;28;20430;-73
2023/07/29 09:19:51;;;;;;;20.85;19.75;;;23.10;69.90;;;;;;5105727;28;20106;-73
2023/07/29 09:22:18;;;;;;;24.00;22.55;;;22.80;70.30;;;;;;5090559;28;20019;-73
2023/07/29 09:24:45;;;;;;;23.02;21.73;;;22.80;70.70;;;;;;5105876;28;20039;-73
2023/07/29 09:27:27;;;;;;;24.00;22.80;;;22.70;72.10;;;;;;5107679;27;20024;-72
2023/07/29 09:29:54;;;;;;;24.85;22.75;;;22.60;71.30;;;;;;5107974;28;20094;-74
2023/07/29 09:32:21;;;;;;;23.77;22.38;;;22.70;72.50;;;;;;5106365;28;20038;-71
2023/07/29 09:34:46;;;;;;;24.20;22.85;;;23.00;71.80;;;;;;5106684;28;20023;-71
2023/07/29 09:37:22;;;;;;;22.67;21.48;;;23.30;69.30;;;;;;5108204;27;20499;-71
2023/07/29 09:39:48;;;;;;;20.27;18.65;;;24.00;65.80;;;;;;5102324;28;20031;-71
2023/07/29 09:42:22;;;;;;;21.10;20.02;;;23.80;67.20;;;;;;5101773;27;20028;-70
2023/07/29 09:44:49;;;;;;;20.10;19.00;;;23.50;69.80;;;;;;5103026;28;20036;-71
2023/07/29 09:47:25;;;;;;;22.65;21.45;;;23.80;66.60;;;;;;5087766;28;20043;-71
2023/07/29 09:49:52;;;;;;;21.50;20.33;;;24.50;68.70;;;;;;5101659;28;20035;-71
2023/07/29 09:52:19;;;;;;;49.95;46.22;;;24.40;65.10;;;;;;5107353;28;20108;-73
2023/07/29 09:54:46;;;;;;;21.55;20.20;;;24.60;61.20;;;;;;5104625;28;20038;-72
2023/07/29 09:57:16;;;;;;;20.30;19.23;;;24.50;64.20;;;;;;5088206;28;20540;-72
2023/07/29 09:59:42;;;;;;;20.10;19.00;;;25.00;61.50;;;;;;5107649;28;20240;-72
2023/07/29 10:02:15;;;;;;;18.38;17.38;;;25.10;60.50;;;;;;5102590;28;20130;-72
2023/07/29 10:04:45;;;;;;;18.90;17.70;;;25.00;62.30;;;;;;5108237;28;20040;-72
2023/07/29 10:07:12;;;;;;;18.20;17.08;;;24.20;62.10;;;;;;5104770;28;20027;-73
2023/07/29 10:09:40;;;;;;;19.80;18.50;;;23.70;62.60;;;;;;5107731;28;20527;-73
2023/07/29 10:12:07;;;;;;;20.58;19.20;;;23.40;63.90;;;;;;5084376;28;20038;-73
2023/07/29 10:14:33;;;;;;;18.40;17.30;;;23.50;65.70;;;;;;5087256;28;20086;-73
2023/07/29 10:17:00;;;;;;;18.90;17.80;;;23.90;67.40;;;;;;5101907;28;20116;-73
2023/07/29 10:19:26;;;;;;;20.95;19.65;;;24.70;65.40;;;;;;5088582;28;20046;-73
2023/07/29 10:21:55;;;;;;;19.30;18.10;;;25.20;64.20;;;;;;5109107;27;20050;-72
2023/07/29 10:24:29;;;;;;;19.30;18.30;;;24.90;61.10;;;;;;5088066;28;20039;-74
2023/07/29 10:26:58;;;;;;;20.08;18.98;;;24.90;62.10;;;;;;5107091;27;20588;-73
2023/07/29 10:29:24;;;;;;;18.43;17.43;;;24.30;60.50;;;;;;5106539;28;20042;-73
2023/07/29 10:31:53;;;;;;;18.08;17.02;;;24.10;64.00;;;;;;5104886;28;20044;-73
2023/07/29 10:34:20;;;;;;;18.33;17.27;;;23.50;65.80;;;;;;5108252;27;20038;-72
2023/07/29 10:36:48;;;;;;;20.42;19.27;;;23.00;73.00;;;;;;5109859;28;20021;-71
2023/07/29 10:39:13;;;;;;;20.55;19.38;;;22.60;75.20;;;;;;5108264;28;20059;-72
2023/07/29 10:41:56;;;;;;;19.35;18.15;;;23.00;76.60;;;;;;5109437;28;20097;-71
2023/07/29 10:44:43;;;;;;;21.08;19.73;;;23.30;74.70;;;;;;5106103;28;20093;-73
2023/07/29 10:47:27;;;;;;;20.02;18.92;;;23.80;77.30;;;;;;5087216;28;20025;-72
2023/07/29 10:49:54;;;;;;;20.77;19.67;;;24.50;76.30;;;;;;5109805;27;20028;-72
2023/07/29 10:52:35;;;;;;;20.55;19.50;;;25.10;74.60;;;;;;5113203;28;20040;-72
2023/07/29 10:55:02;;;;;;;19.05;18.05;;;25.00;62.40;;;;;;5109053;27;20020;-72
2023/07/29 10:57:40;;;;;;;19.42;18.13;;;25.80;61.80;;;;;;5113860;27;20039;-72
2023/07/29 11:00:07;;;;;;;18.85;17.73;;;26.60;57.00;;;;;;5108419;27;20036;-73
2023/07/29 11:02:35;;;;;;;19.13;18.13;;;27.20;55.70;;;;;;5111878;28;20110;-73
2023/07/29 11:05:18;;;;;;;20.45;19.20;;;26.50;53.30;;;;;;5112053;28;20031;-74
2023/07/29 11:07:48;;;;;;;18.58;17.58;;;26.20;55.70;;;;;;5114334;28;20032;-73
2023/07/29 11:10:15;;;;;;;19.10;18.10;;;25.90;55.70;;;;;;5111316;28;20064;-74
2023/07/29 11:12:47;;;;;;;20.25;19.23;;;25.60;57.70;;;;;;5112315;28;20496;-74
2023/07/29 11:15:17;;;;;;;16.50;15.70;;;26.00;58.30;;;;;;5110605;28;20050;-73
2023/07/29 11:17:51;;;;;;;16.23;15.13;;;24.90;60.20;;;;;;5107356;28;20023;-74
2023/07/29 11:20:19;;;;;;;17.52;16.52;;;24.50;61.30;;;;;;5107441;28;20111;-73
2023/07/29 11:22:45;;;;;;;18.30;17.20;;;24.60;63.30;;;;;;5114940;27;20015;-73
2023/07/29 11:25:13;;;;;;;18.17;17.20;;;24.20;63.10;;;;;;5121448;27;20030;-72
2023/07/29 11:27:39;;;;;;;17.13;16.13;;;24.10;63.50;;;;;;5119484;28;20516;-72
2023/07/29 11:30:08;;;;;;;16.80;15.80;;;24.00;63.70;;;;;;5118151;28;20094;-73
2023/07/29 11:32:34;;;;;;;18.25;16.88;;;23.90;65.20;;;;;;5119866;27;20134;-72
2023/07/29 11:35:15;;;;;;;17.55;16.55;;;23.60;65.10;;;;;;5113805;27;20111;-73
2023/07/29 11:37:41;;;;;;;;;;;23.70;64.90;;;;;;5108085;28;20046;-73
2023/07/29 11:40:10;;;;;;;18.85;17.75;;;23.80;66.30;;;;;;5111471;28;19912;-73
2023/07/29 11:42:36;;;;;;;19.90;18.80;;;25.30;62.80;;;;;;5110814;28;20110;-73
2023/07/29 11:45:05;;;;;;;19.55;18.38;;;26.90;57.10;;;;;;5108013;28;20031;-73
2023/07/29 11:47:31;;;;;;;21.33;20.08;;;28.00;53.60;;;;;;5109033;28;20084;-73
2023/07/29 11:50:02;;;;;;;19.55;18.25;;;28.40;51.10;;;;;;5113674;27;20028;-73
2023/07/29 11:52:29;;;;;;;19.45;18.45;;;29.10;50.10;;;;;;5110790;28;20393;-73
2023/07/29 11:54:54;;;;;;;20.77;19.67;;;28.70;47.50;;;;;;5109859;28;20197;-73
2023/07/29 11:57:21;;;;;;;21.95;20.85;;;29.10;46.40;;;;;;5090276;28;20114;-73
2023/07/29 11:59:47;;;;;;;21.58;20.33;;;29.00;45.20;;;;;;5090344;28;20019;-73
2023/07/29 12:02:16;;;;;;;21.52;20.38;;;29.00;46.90;;;;;;5103798;28;20039;-73
2023/07/29 12:04:43;;;;;;;46.88;44.45;;;29.90;49.00;;;;;;5108484;28;20473;-73
2023/07/29 12:07:09;;;;;;;43.08;41.25;;;30.20;41.00;;;;;;5088328;28;20024;-73
2023/07/29 12:09:35;;;;;;;67.88;65.18;;;30.40;43.00;;;;;;5107537;28;20027;-73
2023/07/29 12:12:03;;;;;;;58.60;56.13;;;30.90;38.00;;;;;;5103286;28;20048;-77
2023/07/29 12:14:29;;;;;;;125.07;119.53;;;30.20;40.10;;;;;;5106202;28;20031;-74
2023/07/29 12:16:55;;;;;;;79.22;76.22;;;29.00;38.60;;;;;;5104299;28;20447;-74
2023/07/29 12:19:22;;;;;;;56.10;53.95;;;29.00;41.00;;;;;;5087718;28;20035;-74
2023/07/29 12:21:48;;;;;;;61.83;59.45;;;29.00;42.40;;;;;;5108926;27;20032;-74
2023/07/29 12:24:15;;;;;;;78.45;75.57;;;28.60;41.80;;;;;;5108166;28;20098;-74
2023/07/29 12:26:41;;;;;;;117.85;113.43;;;28.40;39.40;;;;;;5089766;28;20036;-74
2023/07/29 12:29:19;;;;;;;90.90;87.55;;;27.90;39.90;;;;;;5107368;28;20024;-73